Phoenix, Arizona
Traffic Map
Current Weather Conditions
Phoenix, Arizona
Clear
Clear
66°
Feels Like: 66°
Wind Chill: 66° Ceiling: Unl
Heat Index: 66° Visibility: 10mi
Dew Point: 25° Wind: 7mph
Humidity: 21% Direction: 90° (E)
Pressure: 29.98in Gusts: 0mph
Raw Report DataKPHX 300751Z 09006KT 10SM CLR 19/M04 A2998 RMK AO2 SLP140 T01891039
Traffic Incident Summary
Active as of:
Severity:
Category:
InformationThere was an issue retrieving the traffic information for this location. Please try a different location or try again shortly.
Advertisements
Track Severe Weather on mobile